KPBG/PBG METAR and TAF weather

Enter ICAO airport designator
Station Type Date Time Source
KPBG METAR 2019/09/20 19:53 UTC NOAA

KPBG 201953Z AUTO 14009KT 10SM CLR 22/10 A3012 RMK AO2 SLP200 T02220100


Station Type Date Time Source
KPBG Decoded METAR 2019/09/20 19:53 UTC NOAA

PLATTSBURGH INTERNATIONAL AIRPORT, NY, United States (KPBG) 44-39N 073-28W
Sep 20, 2019 - 03:53 PM EDT / 2019.09.20 1953 UTC
Wind: from the SE (140 degrees) at 10 MPH (9 KT):0
Visibility: 10 mile(s):0
Sky conditions: clear
Temperature: 72.0 F (22.2 C)
Dew Point: 50.0 F (10.0 C)
Relative Humidity: 45%
Pressure (altimeter): 30.12 in. Hg (1019 hPa)
ob: KPBG 201953Z AUTO 14009KT 10SM CLR 22/10 A3012 RMK AO2 SLP200 T02220100
cycle: 20

Station Type Date Time Source
KPBG TAF 2019/09/20 18:24 UTC NOAA

TAF KPBG 201720Z 2018/2118 14011KT P6SM SCT150
FM202200 VRB04KT P6SM FEW150

Example: see airport list